Salina, KS

3:01 PM CDT on April 19, 2015 (GMT -0500)
Willis Ave | | Change Station
CLOSE
Current Station
Personal Weather Station
Location: Salina, KS
Elevation: 1247 ft
Nearby Weather Stations

Elev 1247 ft 38.81 °N, 97.62 °W | Updated 1 second ago

Overcast
Overcast
52.0 °F
Feels Like 52.0 °F
N
6.0
Wind Variable Wind from North
Gusts 17.0 mph

Today
High -- | Low -- °F
--% Chance of Precip.
Yesterday
High -- | Low -- °F
Precip. -- in
6:48 AM 8:11 PM
New Moon, 2% visible
Pressure 29.84 in
Visibility 10.0 miles
Clouds Overcast 4200 ft
Dew Point 41 °F
Humidity 67%
Rainfall 0.00 in
Snow Depth Not available.
UV 3 out of 12
Pollen 5.00 out of 12
Air Quality Not available.
Flu Activity Sporadic
METAR KSLN 191953Z 34026G35KT 10SM OVC042 11/04 A2984 RMK AO2 PK WND 32035/1901 RAE10 SLP103 P0000 T01110044

More Conditions Fewer Conditions

Pressure 29.84 in
Visibility 10.0 miles
Clouds Overcast 4200 ft
Dew Point 41 °F
Humidity 67%
Rainfall 0.00 in
Snow Depth Not available.
UV 3 out of 12
Pollen 5.00 out of 12
Air Quality Not available.
Flu Activity Sporadic
METAR KSLN 191953Z 34026G35KT 10SM OVC042 11/04 A2984 RMK AO2 PK WND 32035/1901 RAE10 SLP103 P0000 T01110044

More Conditions Fewer Conditions

10-Day Weather Forecast

Almanac

Astronomy

Apr. 19, 2015 Rise Set
Actual Time
Civil Twilight
Nautical Twilight
Astronomical Twilight
Moon
Length of Visible Light
Length of Day
Tomorrow will be .
, % of the Moon is Illuminated

Today's Extremes

State Highs State Lows

Community

WunderPhotos

Upload Photos

1,814,956 photos uploaded!

WunderBlogs® & News

Nearby

Air Quality

  Air Quality AQ Index Pollutant
Not available.

Snow Depth

Station Depth Elevation

Earthquake Activity

City Distance Mag. Time & Date
Minimum magnitude displayed is 2.5.

Coastal Water Temperatures

Place Temperature

Stations

Nearby Weather Stations

Station Location Temp. Windchill Dew Point Humidity Wind Precip. Elev Updated Type